sensor_id;sensor_type;location;lat;lon;timestamp;P1;durP1;ratioP1;P2;durP2;ratioP2
20080;SDS011;10200;49.232;9.222;2024-01-06T00:02:03;14.83;;;7.70;;
20080;SDS011;10200;49.232;9.222;2024-01-06T00:04:29;6.73;;;5.33;;
20080;SDS011;10200;49.232;9.222;2024-01-06T00:06:55;8.43;;;5.60;;
20080;SDS011;10200;49.232;9.222;2024-01-06T00:09:21;10.73;;;5.17;;
20080;SDS011;10200;49.232;9.222;2024-01-06T00:11:46;9.03;;;5.17;;
20080;SDS011;10200;49.232;9.222;2024-01-06T00:14:12;8.50;;;5.13;;
20080;SDS011;10200;49.232;9.222;2024-01-06T00:16:38;13.03;;;6.20;;
20080;SDS011;10200;49.232;9.222;2024-01-06T00:19:04;10.00;;;6.40;;
20080;SDS011;10200;49.232;9.222;2024-01-06T00:21:29;10.13;;;6.43;;
20080;SDS011;10200;49.232;9.222;2024-01-06T00:23:55;10.67;;;6.90;;
20080;SDS011;10200;49.232;9.222;2024-01-06T00:26:21;12.03;;;6.17;;
20080;SDS011;10200;49.232;9.222;2024-01-06T00:28:48;8.80;;;5.93;;
20080;SDS011;10200;49.232;9.222;2024-01-06T00:31:14;8.73;;;5.33;;
20080;SDS011;10200;49.232;9.222;2024-01-06T00:33:43;7.30;;;4.97;;
20080;SDS011;10200;49.232;9.222;2024-01-06T00:36:09;8.20;;;5.53;;
20080;SDS011;10200;49.232;9.222;2024-01-06T00:38:36;9.53;;;4.87;;
20080;SDS011;10200;49.232;9.222;2024-01-06T00:41:01;8.77;;;5.17;;
20080;SDS011;10200;49.232;9.222;2024-01-06T00:43:27;9.83;;;5.10;;
20080;SDS011;10200;49.232;9.222;2024-01-06T00:45:53;15.13;;;6.07;;
20080;SDS011;10200;49.232;9.222;2024-01-06T00:48:19;7.30;;;4.87;;
20080;SDS011;10200;49.232;9.222;2024-01-06T00:50:45;10.70;;;5.50;;
20080;SDS011;10200;49.232;9.222;2024-01-06T00:53:11;8.40;;;4.87;;
20080;SDS011;10200;49.232;9.222;2024-01-06T00:55:38;11.60;;;5.07;;
20080;SDS011;10200;49.232;9.222;2024-01-06T00:58:04;7.17;;;5.10;;
20080;SDS011;10200;49.232;9.222;2024-01-06T01:00:29;7.20;;;5.00;;
20080;SDS011;10200;49.232;9.222;2024-01-06T01:02:55;10.37;;;5.10;;
20080;SDS011;10200;49.232;9.222;2024-01-06T01:05:20;6.67;;;5.23;;
20080;SDS011;10200;49.232;9.222;2024-01-06T01:07:46;8.73;;;5.00;;
20080;SDS011;10200;49.232;9.222;2024-01-06T01:10:12;7.10;;;5.33;;
20080;SDS011;10200;49.232;9.222;2024-01-06T01:12:38;10.23;;;5.67;;
20080;SDS011;10200;49.232;9.222;2024-01-06T01:15:04;9.10;;;5.63;;
20080;SDS011;10200;49.232;9.222;2024-01-06T01:17:32;13.57;;;6.10;;
20080;SDS011;10200;49.232;9.222;2024-01-06T01:19:58;11.73;;;6.13;;
20080;SDS011;10200;49.232;9.222;2024-01-06T01:22:23;7.03;;;5.70;;
20080;SDS011;10200;49.232;9.222;2024-01-06T01:24:49;9.80;;;6.13;;
20080;SDS011;10200;49.232;9.222;2024-01-06T01:27:15;10.43;;;5.87;;
20080;SDS011;10200;49.232;9.222;2024-01-06T01:29:44;8.27;;;5.40;;
20080;SDS011;10200;49.232;9.222;2024-01-06T01:32:09;11.37;;;5.50;;
20080;SDS011;10200;49.232;9.222;2024-01-06T01:34:35;9.60;;;5.23;;
20080;SDS011;10200;49.232;9.222;2024-01-06T01:37:01;6.53;;;4.73;;
20080;SDS011;10200;49.232;9.222;2024-01-06T01:39:26;9.60;;;5.50;;
20080;SDS011;10200;49.232;9.222;2024-01-06T01:41:52;14.83;;;6.27;;
20080;SDS011;10200;49.232;9.222;2024-01-06T01:44:17;7.17;;;5.10;;
20080;SDS011;10200;49.232;9.222;2024-01-06T01:46:43;8.23;;;5.10;;
20080;SDS011;10200;49.232;9.222;2024-01-06T01:49:09;6.97;;;4.23;;
20080;SDS011;10200;49.232;9.222;2024-01-06T01:51:35;7.10;;;5.20;;
20080;SDS011;10200;49.232;9.222;2024-01-06T01:54:02;7.10;;;5.20;;
20080;SDS011;10200;49.232;9.222;2024-01-06T01:56:31;4.63;;;4.10;;
20080;SDS011;10200;49.232;9.222;2024-01-06T01:59:06;10.83;;;4.63;;
20080;SDS011;10200;49.232;9.222;2024-01-06T02:01:36;8.80;;;4.60;;
20080;SDS011;10200;49.232;9.222;2024-01-06T02:04:02;7.00;;;4.80;;
20080;SDS011;10200;49.232;9.222;2024-01-06T02:06:28;7.67;;;4.60;;
20080;SDS011;10200;49.232;9.222;2024-01-06T02:08:53;10.37;;;5.30;;
20080;SDS011;10200;49.232;9.222;2024-01-06T02:11:20;8.20;;;5.47;;
20080;SDS011;10200;49.232;9.222;2024-01-06T02:13:46;9.50;;;5.60;;
20080;SDS011;10200;49.232;9.222;2024-01-06T02:16:11;9.03;;;4.93;;
20080;SDS011;10200;49.232;9.222;2024-01-06T02:18:37;5.53;;;4.67;;
20080;SDS011;10200;49.232;9.222;2024-01-06T02:21:03;8.63;;;5.67;;
20080;SDS011;10200;49.232;9.222;2024-01-06T02:23:29;7.77;;;5.23;;
20080;SDS011;10200;49.232;9.222;2024-01-06T02:25:55;7.40;;;5.27;;
20080;SDS011;10200;49.232;9.222;2024-01-06T02:28:21;7.37;;;5.20;;
20080;SDS011;10200;49.232;9.222;2024-01-06T02:30:47;6.63;;;5.40;;
20080;SDS011;10200;49.232;9.222;2024-01-06T02:33:14;7.20;;;5.30;;
20080;SDS011;10200;49.232;9.222;2024-01-06T02:35:39;7.70;;;5.37;;
20080;SDS011;10200;49.232;9.222;2024-01-06T02:38:05;10.17;;;5.27;;
20080;SDS011;10200;49.232;9.222;2024-01-06T02:40:31;7.83;;;6.00;;
20080;SDS011;10200;49.232;9.222;2024-01-06T02:42:57;6.80;;;5.13;;
20080;SDS011;10200;49.232;9.222;2024-01-06T02:45:24;12.47;;;5.73;;
20080;SDS011;10200;49.232;9.222;2024-01-06T02:47:49;5.77;;;4.80;;
20080;SDS011;10200;49.232;9.222;2024-01-06T02:50:17;8.90;;;6.23;;
20080;SDS011;10200;49.232;9.222;2024-01-06T02:52:44;8.63;;;5.27;;
20080;SDS011;10200;49.232;9.222;2024-01-06T02:55:10;7.93;;;5.67;;
20080;SDS011;10200;49.232;9.222;2024-01-06T02:57:37;7.57;;;5.27;;
20080;SDS011;10200;49.232;9.222;2024-01-06T03:00:05;8.73;;;5.40;;
20080;SDS011;10200;49.232;9.222;2024-01-06T03:02:31;10.50;;;6.00;;
20080;SDS011;10200;49.232;9.222;2024-01-06T03:04:59;7.47;;;5.37;;
20080;SDS011;10200;49.232;9.222;2024-01-06T03:07:25;9.37;;;6.00;;
20080;SDS011;10200;49.232;9.222;2024-01-06T03:09:52;8.83;;;4.87;;
20080;SDS011;10200;49.232;9.222;2024-01-06T03:12:18;9.80;;;5.63;;
20080;SDS011;10200;49.232;9.222;2024-01-06T03:14:47;8.50;;;4.67;;
20080;SDS011;10200;49.232;9.222;2024-01-06T03:17:12;9.50;;;5.20;;
20080;SDS011;10200;49.232;9.222;2024-01-06T03:19:39;6.53;;;5.00;;
20080;SDS011;10200;49.232;9.222;2024-01-06T03:22:04;7.63;;;4.60;;
20080;SDS011;10200;49.232;9.222;2024-01-06T03:24:31;6.90;;;4.87;;
20080;SDS011;10200;49.232;9.222;2024-01-06T03:26:57;8.30;;;5.37;;
20080;SDS011;10200;49.232;9.222;2024-01-06T03:29:23;6.60;;;4.67;;
20080;SDS011;10200;49.232;9.222;2024-01-06T03:31:48;5.37;;;4.40;;
20080;SDS011;10200;49.232;9.222;2024-01-06T03:34:14;5.70;;;4.30;;
20080;SDS011;10200;49.232;9.222;2024-01-06T03:36:40;8.43;;;4.77;;
20080;SDS011;10200;49.232;9.222;2024-01-06T03:39:06;6.20;;;4.57;;
20080;SDS011;10200;49.232;9.222;2024-01-06T03:41:33;6.17;;;4.70;;
20080;SDS011;10200;49.232;9.222;2024-01-06T03:44:00;6.50;;;4.20;;
20080;SDS011;10200;49.232;9.222;2024-01-06T03:46:27;6.70;;;4.33;;
20080;SDS011;10200;49.232;9.222;2024-01-06T03:48:54;5.03;;;4.30;;
20080;SDS011;10200;49.232;9.222;2024-01-06T03:51:19;7.70;;;4.77;;
20080;SDS011;10200;49.232;9.222;2024-01-06T03:53:47;4.37;;;3.67;;
20080;SDS011;10200;49.232;9.222;2024-01-06T03:56:12;4.87;;;3.73;;
20080;SDS011;10200;49.232;9.222;2024-01-06T03:58:38;7.80;;;3.97;;
20080;SDS011;10200;49.232;9.222;2024-01-06T04:01:06;5.50;;;3.37;;
20080;SDS011;10200;49.232;9.222;2024-01-06T04:03:32;4.83;;;2.87;;
20080;SDS011;10200;49.232;9.222;2024-01-06T04:05:59;6.37;;;3.13;;
20080;SDS011;10200;49.232;9.222;2024-01-06T04:08:25;7.03;;;3.10;;
20080;SDS011;10200;49.232;9.222;2024-01-06T04:10:50;6.40;;;2.60;;
20080;SDS011;10200;49.232;9.222;2024-01-06T04:13:17;6.27;;;2.67;;
20080;SDS011;10200;49.232;9.222;2024-01-06T04:15:43;6.47;;;2.80;;
20080;SDS011;10200;49.232;9.222;2024-01-06T04:18:09;5.27;;;2.50;;
20080;SDS011;10200;49.232;9.222;2024-01-06T04:20:35;7.33;;;2.97;;
20080;SDS011;10200;49.232;9.222;2024-01-06T04:23:01;5.03;;;2.40;;
20080;SDS011;10200;49.232;9.222;2024-01-06T04:25:27;4.73;;;2.90;;
20080;SDS011;10200;49.232;9.222;2024-01-06T04:27:53;4.33;;;2.93;;
20080;SDS011;10200;49.232;9.222;2024-01-06T04:30:18;5.23;;;2.77;;
20080;SDS011;10200;49.232;9.222;2024-01-06T04:32:45;3.97;;;2.60;;
20080;SDS011;10200;49.232;9.222;2024-01-06T04:35:13;8.00;;;3.13;;
20080;SDS011;10200;49.232;9.222;2024-01-06T04:37:39;6.33;;;3.40;;
20080;SDS011;10200;49.232;9.222;2024-01-06T04:40:05;5.33;;;3.03;;
20080;SDS011;10200;49.232;9.222;2024-01-06T04:42:31;4.10;;;2.90;;
20080;SDS011;10200;49.232;9.222;2024-01-06T04:44:58;4.43;;;2.93;;
20080;SDS011;10200;49.232;9.222;2024-01-06T04:47:24;4.30;;;3.00;;
20080;SDS011;10200;49.232;9.222;2024-01-06T04:49:52;3.30;;;2.30;;
20080;SDS011;10200;49.232;9.222;2024-01-06T04:52:19;5.43;;;2.47;;
20080;SDS011;10200;49.232;9.222;2024-01-06T04:54:45;4.07;;;2.63;;
20080;SDS011;10200;49.232;9.222;2024-01-06T04:57:11;3.70;;;2.53;;
20080;SDS011;10200;49.232;9.222;2024-01-06T04:59:36;6.10;;;2.83;;
20080;SDS011;10200;49.232;9.222;2024-01-06T05:02:02;4.13;;;2.70;;
20080;SDS011;10200;49.232;9.222;2024-01-06T05:04:28;6.33;;;2.83;;
20080;SDS011;10200;49.232;9.222;2024-01-06T05:06:55;5.00;;;2.90;;
20080;SDS011;10200;49.232;9.222;2024-01-06T05:09:22;6.87;;;2.90;;
20080;SDS011;10200;49.232;9.222;2024-01-06T05:11:48;6.97;;;3.13;;
20080;SDS011;10200;49.232;9.222;2024-01-06T05:14:14;5.90;;;2.90;;
20080;SDS011;10200;49.232;9.222;2024-01-06T05:16:40;5.60;;;3.17;;
20080;SDS011;10200;49.232;9.222;2024-01-06T05:19:05;8.27;;;2.77;;
20080;SDS011;10200;49.232;9.222;2024-01-06T05:21:31;2.90;;;2.50;;
20080;SDS011;10200;49.232;9.222;2024-01-06T05:23:57;2.70;;;2.37;;
20080;SDS011;10200;49.232;9.222;2024-01-06T05:26:24;3.43;;;2.27;;
20080;SDS011;10200;49.232;9.222;2024-01-06T05:28:50;7.20;;;2.60;;
20080;SDS011;10200;49.232;9.222;2024-01-06T05:31:16;4.90;;;2.50;;
20080;SDS011;10200;49.232;9.222;2024-01-06T05:33:43;7.83;;;2.40;;
20080;SDS011;10200;49.232;9.222;2024-01-06T05:36:09;3.53;;;2.20;;
20080;SDS011;10200;49.232;9.222;2024-01-06T05:38:36;6.87;;;2.93;;
20080;SDS011;10200;49.232;9.222;2024-01-06T05:41:02;5.77;;;2.40;;
20080;SDS011;10200;49.232;9.222;2024-01-06T05:43:27;3.97;;;1.93;;
20080;SDS011;10200;49.232;9.222;2024-01-06T05:45:53;3.30;;;2.57;;
20080;SDS011;10200;49.232;9.222;2024-01-06T05:48:18;4.93;;;2.30;;
20080;SDS011;10200;49.232;9.222;2024-01-06T05:50:44;2.50;;;2.10;;
20080;SDS011;10200;49.232;9.222;2024-01-06T05:53:11;7.93;;;3.30;;
20080;SDS011;10200;49.232;9.222;2024-01-06T05:55:40;4.37;;;2.77;;
20080;SDS011;10200;49.232;9.222;2024-01-06T05:58:06;4.67;;;2.37;;
20080;SDS011;10200;49.232;9.222;2024-01-06T06:00:33;4.47;;;2.53;;
20080;SDS011;10200;49.232;9.222;2024-01-06T06:02:58;6.90;;;2.63;;
20080;SDS011;10200;49.232;9.222;2024-01-06T06:05:24;3.43;;;2.33;;
20080;SDS011;10200;49.232;9.222;2024-01-06T06:07:50;4.63;;;2.37;;
20080;SDS011;10200;49.232;9.222;2024-01-06T06:10:15;4.43;;;2.60;;
20080;SDS011;10200;49.232;9.222;2024-01-06T06:12:43;5.97;;;2.70;;
20080;SDS011;10200;49.232;9.222;2024-01-06T06:15:09;5.10;;;2.87;;
20080;SDS011;10200;49.232;9.222;2024-01-06T06:17:35;5.03;;;2.43;;
20080;SDS011;10200;49.232;9.222;2024-01-06T06:20:01;6.83;;;2.77;;
20080;SDS011;10200;49.232;9.222;2024-01-06T06:22:28;3.83;;;2.30;;
20080;SDS011;10200;49.232;9.222;2024-01-06T06:24:57;4.63;;;2.43;;
20080;SDS011;10200;49.232;9.222;2024-01-06T06:27:24;4.47;;;2.77;;
20080;SDS011;10200;49.232;9.222;2024-01-06T06:29:50;3.00;;;2.10;;
20080;SDS011;10200;49.232;9.222;2024-01-06T06:32:16;4.30;;;2.63;;
20080;SDS011;10200;49.232;9.222;2024-01-06T06:34:42;4.57;;;2.93;;
20080;SDS011;10200;49.232;9.222;2024-01-06T06:37:08;6.97;;;2.93;;
20080;SDS011;10200;49.232;9.222;2024-01-06T06:39:34;5.67;;;2.73;;
20080;SDS011;10200;49.232;9.222;2024-01-06T06:42:00;4.17;;;2.73;;
20080;SDS011;10200;49.232;9.222;2024-01-06T06:44:26;4.27;;;2.70;;
20080;SDS011;10200;49.232;9.222;2024-01-06T06:46:53;4.07;;;2.57;;
20080;SDS011;10200;49.232;9.222;2024-01-06T06:49:18;3.73;;;2.77;;
20080;SDS011;10200;49.232;9.222;2024-01-06T06:51:44;3.53;;;2.80;;
20080;SDS011;10200;49.232;9.222;2024-01-06T06:54:13;4.00;;;2.87;;
20080;SDS011;10200;49.232;9.222;2024-01-06T06:56:40;4.17;;;2.57;;
20080;SDS011;10200;49.232;9.222;2024-01-06T06:59:10;4.63;;;2.87;;
20080;SDS011;10200;49.232;9.222;2024-01-06T07:01:35;5.67;;;3.07;;
20080;SDS011;10200;49.232;9.222;2024-01-06T07:04:03;6.40;;;2.50;;
20080;SDS011;10200;49.232;9.222;2024-01-06T07:06:29;4.87;;;2.77;;
20080;SDS011;10200;49.232;9.222;2024-01-06T07:08:55;5.30;;;2.47;;
20080;SDS011;10200;49.232;9.222;2024-01-06T07:11:21;5.77;;;2.80;;
20080;SDS011;10200;49.232;9.222;2024-01-06T07:13:46;6.50;;;2.50;;
20080;SDS011;10200;49.232;9.222;2024-01-06T07:16:12;5.37;;;2.60;;
20080;SDS011;10200;49.232;9.222;2024-01-06T07:18:39;9.67;;;2.40;;
20080;SDS011;10200;49.232;9.222;2024-01-06T07:21:05;2.80;;;1.90;;
20080;SDS011;10200;49.232;9.222;2024-01-06T07:23:33;2.67;;;2.23;;
20080;SDS011;10200;49.232;9.222;2024-01-06T07:26:00;4.67;;;2.47;;
20080;SDS011;10200;49.232;9.222;2024-01-06T07:28:26;5.57;;;2.80;;
20080;SDS011;10200;49.232;9.222;2024-01-06T07:30:52;7.60;;;2.73;;
20080;SDS011;10200;49.232;9.222;2024-01-06T07:33:17;8.27;;;2.97;;
20080;SDS011;10200;49.232;9.222;2024-01-06T07:35:46;5.77;;;2.73;;
20080;SDS011;10200;49.232;9.222;2024-01-06T07:38:13;5.00;;;2.90;;
20080;SDS011;10200;49.232;9.222;2024-01-06T07:40:42;5.63;;;2.80;;
20080;SDS011;10200;49.232;9.222;2024-01-06T07:43:09;4.73;;;2.80;;
20080;SDS011;10200;49.232;9.222;2024-01-06T07:45:35;3.67;;;2.57;;
20080;SDS011;10200;49.232;9.222;2024-01-06T07:48:00;3.57;;;3.17;;
20080;SDS011;10200;49.232;9.222;2024-01-06T07:50:26;4.97;;;2.20;;
20080;SDS011;10200;49.232;9.222;2024-01-06T07:52:53;3.80;;;2.47;;
20080;SDS011;10200;49.232;9.222;2024-01-06T07:55:19;4.30;;;2.50;;
20080;SDS011;10200;49.232;9.222;2024-01-06T07:57:45;5.63;;;2.57;;
20080;SDS011;10200;49.232;9.222;2024-01-06T08:00:13;3.67;;;2.50;;
20080;SDS011;10200;49.232;9.222;2024-01-06T08:02:39;4.53;;;3.13;;
20080;SDS011;10200;49.232;9.222;2024-01-06T08:05:06;4.50;;;3.23;;
20080;SDS011;10200;49.232;9.222;2024-01-06T08:07:32;8.07;;;4.20;;
20080;SDS011;10200;49.232;9.222;2024-01-06T08:10:01;6.03;;;3.50;;
20080;SDS011;10200;49.232;9.222;2024-01-06T08:12:29;7.80;;;3.17;;
20080;SDS011;10200;49.232;9.222;2024-01-06T08:14:55;5.80;;;3.47;;
20080;SDS011;10200;49.232;9.222;2024-01-06T08:17:24;9.27;;;3.43;;
20080;SDS011;10200;49.232;9.222;2024-01-06T08:19:50;10.47;;;3.77;;
20080;SDS011;10200;49.232;9.222;2024-01-06T08:22:17;4.97;;;3.40;;
20080;SDS011;10200;49.232;9.222;2024-01-06T08:24:43;8.13;;;3.27;;
20080;SDS011;10200;49.232;9.222;2024-01-06T08:27:09;3.90;;;3.00;;
20080;SDS011;10200;49.232;9.222;2024-01-06T08:29:35;5.93;;;2.97;;
20080;SDS011;10200;49.232;9.222;2024-01-06T08:32:01;6.67;;;3.03;;
20080;SDS011;10200;49.232;9.222;2024-01-06T08:34:26;7.50;;;3.30;;
20080;SDS011;10200;49.232;9.222;2024-01-06T08:36:52;4.33;;;3.00;;
20080;SDS011;10200;49.232;9.222;2024-01-06T08:39:18;7.43;;;3.87;;
20080;SDS011;10200;49.232;9.222;2024-01-06T08:41:43;8.50;;;5.67;;
20080;SDS011;10200;49.232;9.222;2024-01-06T08:44:09;6.97;;;5.10;;
20080;SDS011;10200;49.232;9.222;2024-01-06T08:46:35;10.97;;;6.00;;
20080;SDS011;10200;49.232;9.222;2024-01-06T08:49:00;11.13;;;5.83;;
20080;SDS011;10200;49.232;9.222;2024-01-06T08:51:26;6.30;;;4.97;;
20080;SDS011;10200;49.232;9.222;2024-01-06T08:53:53;9.07;;;4.63;;
20080;SDS011;10200;49.232;9.222;2024-01-06T08:56:19;8.47;;;4.30;;
20080;SDS011;10200;49.232;9.222;2024-01-06T08:58:45;5.83;;;4.40;;
20080;SDS011;10200;49.232;9.222;2024-01-06T09:01:11;8.17;;;3.93;;
20080;SDS011;10200;49.232;9.222;2024-01-06T09:03:39;7.90;;;4.23;;
20080;SDS011;10200;49.232;9.222;2024-01-06T09:06:04;10.10;;;4.33;;
20080;SDS011;10200;49.232;9.222;2024-01-06T09:08:30;6.30;;;3.70;;
20080;SDS011;10200;49.232;9.222;2024-01-06T09:10:56;8.13;;;3.37;;
20080;SDS011;10200;49.232;9.222;2024-01-06T09:13:23;7.37;;;3.23;;
20080;SDS011;10200;49.232;9.222;2024-01-06T09:15:52;5.30;;;2.93;;
20080;SDS011;10200;49.232;9.222;2024-01-06T09:18:18;6.43;;;3.17;;
20080;SDS011;10200;49.232;9.222;2024-01-06T09:20:46;7.10;;;3.03;;
20080;SDS011;10200;49.232;9.222;2024-01-06T09:23:15;6.60;;;3.43;;
20080;SDS011;10200;49.232;9.222;2024-01-06T09:25:41;6.30;;;3.10;;
20080;SDS011;10200;49.232;9.222;2024-01-06T09:28:08;7.90;;;3.57;;
20080;SDS011;10200;49.232;9.222;2024-01-06T09:30:33;5.00;;;3.13;;
20080;SDS011;10200;49.232;9.222;2024-01-06T09:32:59;5.50;;;3.23;;
20080;SDS011;10200;49.232;9.222;2024-01-06T09:35:25;5.50;;;3.20;;
20080;SDS011;10200;49.232;9.222;2024-01-06T09:37:52;10.77;;;5.90;;
20080;SDS011;10200;49.232;9.222;2024-01-06T09:40:21;5.43;;;3.73;;
20080;SDS011;10200;49.232;9.222;2024-01-06T09:42:52;5.53;;;3.93;;
20080;SDS011;10200;49.232;9.222;2024-01-06T09:45:21;6.00;;;3.73;;
20080;SDS011;10200;49.232;9.222;2024-01-06T09:47:51;5.53;;;3.70;;
20080;SDS011;10200;49.232;9.222;2024-01-06T09:50:17;6.10;;;3.80;;
20080;SDS011;10200;49.232;9.222;2024-01-06T09:52:47;7.13;;;3.57;;
20080;SDS011;10200;49.232;9.222;2024-01-06T09:55:25;5.93;;;4.37;;
20080;SDS011;10200;49.232;9.222;2024-01-06T09:57:52;5.10;;;3.40;;
20080;SDS011;10200;49.232;9.222;2024-01-06T10:00:18;8.10;;;3.80;;
20080;SDS011;10200;49.232;9.222;2024-01-06T10:02:49;9.90;;;4.03;;
20080;SDS011;10200;49.232;9.222;2024-01-06T10:05:18;6.07;;;4.27;;
20080;SDS011;10200;49.232;9.222;2024-01-06T10:07:45;5.20;;;3.90;;
20080;SDS011;10200;49.232;9.222;2024-01-06T10:10:11;8.33;;;4.83;;
20080;SDS011;10200;49.232;9.222;2024-01-06T10:12:37;10.87;;;5.10;;
20080;SDS011;10200;49.232;9.222;2024-01-06T10:15:06;10.00;;;5.00;;
20080;SDS011;10200;49.232;9.222;2024-01-06T10:17:37;5.13;;;3.80;;
20080;SDS011;10200;49.232;9.222;2024-01-06T10:20:11;5.13;;;3.80;;
20080;SDS011;10200;49.232;9.222;2024-01-06T10:22:40;7.83;;;4.10;;
20080;SDS011;10200;49.232;9.222;2024-01-06T10:25:07;6.50;;;4.03;;
20080;SDS011;10200;49.232;9.222;2024-01-06T10:27:34;8.33;;;4.20;;
20080;SDS011;10200;49.232;9.222;2024-01-06T10:30:01;6.53;;;4.00;;
20080;SDS011;10200;49.232;9.222;2024-01-06T10:32:34;7.77;;;4.43;;
20080;SDS011;10200;49.232;9.222;2024-01-06T10:35:01;6.43;;;4.30;;
20080;SDS011;10200;49.232;9.222;2024-01-06T10:37:28;6.90;;;4.40;;
20080;SDS011;10200;49.232;9.222;2024-01-06T10:40:10;7.43;;;4.13;;
20080;SDS011;10200;49.232;9.222;2024-01-06T10:42:38;7.83;;;3.87;;
20080;SDS011;10200;49.232;9.222;2024-01-06T10:45:08;7.37;;;4.50;;
20080;SDS011;10200;49.232;9.222;2024-01-06T10:47:35;6.63;;;4.20;;
20080;SDS011;10200;49.232;9.222;2024-01-06T10:50:02;9.67;;;4.13;;
20080;SDS011;10200;49.232;9.222;2024-01-06T10:52:28;5.40;;;3.53;;
20080;SDS011;10200;49.232;9.222;2024-01-06T10:54:55;7.90;;;4.00;;
20080;SDS011;10200;49.232;9.222;2024-01-06T10:57:21;5.17;;;3.33;;
20080;SDS011;10200;49.232;9.222;2024-01-06T10:59:49;6.77;;;3.57;;
20080;SDS011;10200;49.232;9.222;2024-01-06T11:02:16;6.27;;;3.43;;
20080;SDS011;10200;49.232;9.222;2024-01-06T11:04:45;5.97;;;3.80;;
20080;SDS011;10200;49.232;9.222;2024-01-06T11:07:16;6.97;;;3.70;;
20080;SDS011;10200;49.232;9.222;2024-01-06T11:12:23;11.10;;;4.10;;
20080;SDS011;10200;49.232;9.222;2024-01-06T11:14:52;8.63;;;4.30;;
20080;SDS011;10200;49.232;9.222;2024-01-06T11:20:23;4.33;;;3.40;;
20080;SDS011;10200;49.232;9.222;2024-01-06T11:22:50;6.33;;;3.60;;
20080;SDS011;10200;49.232;9.222;2024-01-06T11:25:21;5.80;;;3.30;;
20080;SDS011;10200;49.232;9.222;2024-01-06T11:27:48;5.07;;;3.40;;
20080;SDS011;10200;49.232;9.222;2024-01-06T11:30:26;6.00;;;4.20;;
20080;SDS011;10200;49.232;9.222;2024-01-06T11:32:57;4.87;;;3.60;;
20080;SDS011;10200;49.232;9.222;2024-01-06T11:35:27;5.73;;;3.87;;
20080;SDS011;10200;49.232;9.222;2024-01-06T11:37:53;9.60;;;4.17;;
20080;SDS011;10200;49.232;9.222;2024-01-06T11:45:24;7.27;;;4.53;;
20080;SDS011;10200;49.232;9.222;2024-01-06T11:47:51;7.77;;;4.03;;
20080;SDS011;10200;49.232;9.222;2024-01-06T11:50:21;5.50;;;3.97;;
20080;SDS011;10200;49.232;9.222;2024-01-06T11:52:48;4.20;;;3.47;;
20080;SDS011;10200;49.232;9.222;2024-01-06T11:55:16;6.53;;;3.90;;
20080;SDS011;10200;49.232;9.222;2024-01-06T11:57:43;6.70;;;4.10;;
20080;SDS011;10200;49.232;9.222;2024-01-06T12:00:10;4.50;;;3.70;;
20080;SDS011;10200;49.232;9.222;2024-01-06T12:02:36;5.93;;;4.40;;
20080;SDS011;10200;49.232;9.222;2024-01-06T12:05:02;9.67;;;4.40;;
20080;SDS011;10200;49.232;9.222;2024-01-06T12:07:28;6.07;;;4.70;;
20080;SDS011;10200;49.232;9.222;2024-01-06T12:10:01;9.90;;;5.00;;
20080;SDS011;10200;49.232;9.222;2024-01-06T12:12:28;7.63;;;4.60;;
20080;SDS011;10200;49.232;9.222;2024-01-06T12:14:53;4.53;;;4.00;;
20080;SDS011;10200;49.232;9.222;2024-01-06T12:17:20;7.50;;;4.67;;
20080;SDS011;10200;49.232;9.222;2024-01-06T12:19:47;6.93;;;4.13;;
20080;SDS011;10200;49.232;9.222;2024-01-06T12:22:13;7.30;;;5.07;;
20080;SDS011;10200;49.232;9.222;2024-01-06T12:24:40;6.77;;;4.20;;
20080;SDS011;10200;49.232;9.222;2024-01-06T12:27:08;6.33;;;4.13;;
20080;SDS011;10200;49.232;9.222;2024-01-06T12:29:40;8.67;;;5.43;;
20080;SDS011;10200;49.232;9.222;2024-01-06T12:32:07;7.50;;;5.07;;
20080;SDS011;10200;49.232;9.222;2024-01-06T12:34:34;8.47;;;4.47;;
20080;SDS011;10200;49.232;9.222;2024-01-06T12:37:02;5.63;;;4.33;;
20080;SDS011;10200;49.232;9.222;2024-01-06T12:39:28;7.67;;;4.50;;
20080;SDS011;10200;49.232;9.222;2024-01-06T12:41:55;6.83;;;4.27;;
20080;SDS011;10200;49.232;9.222;2024-01-06T12:44:21;6.67;;;4.17;;
20080;SDS011;10200;49.232;9.222;2024-01-06T12:46:48;5.43;;;4.30;;
20080;SDS011;10200;49.232;9.222;2024-01-06T12:49:14;6.50;;;4.20;;
20080;SDS011;10200;49.232;9.222;2024-01-06T12:51:40;4.93;;;4.43;;
20080;SDS011;10200;49.232;9.222;2024-01-06T12:54:06;8.33;;;5.47;;
20080;SDS011;10200;49.232;9.222;2024-01-06T12:56:31;7.10;;;4.10;;
20080;SDS011;10200;49.232;9.222;2024-01-06T12:58:57;6.80;;;5.10;;
20080;SDS011;10200;49.232;9.222;2024-01-06T13:01:23;6.17;;;4.60;;
20080;SDS011;10200;49.232;9.222;2024-01-06T13:03:49;6.70;;;4.07;;
20080;SDS011;10200;49.232;9.222;2024-01-06T13:06:15;7.20;;;5.00;;
20080;SDS011;10200;49.232;9.222;2024-01-06T13:08:41;7.97;;;5.30;;
20080;SDS011;10200;49.232;9.222;2024-01-06T13:11:08;6.70;;;4.87;;
20080;SDS011;10200;49.232;9.222;2024-01-06T13:13:34;7.57;;;5.20;;
20080;SDS011;10200;49.232;9.222;2024-01-06T13:16:00;5.93;;;4.17;;
20080;SDS011;10200;49.232;9.222;2024-01-06T13:18:30;5.33;;;4.73;;
20080;SDS011;10200;49.232;9.222;2024-01-06T13:20:56;8.27;;;5.77;;
20080;SDS011;10200;49.232;9.222;2024-01-06T13:23:22;6.43;;;5.23;;
20080;SDS011;10200;49.232;9.222;2024-01-06T13:25:48;9.97;;;5.73;;
20080;SDS011;10200;49.232;9.222;2024-01-06T13:28:13;8.27;;;5.57;;
20080;SDS011;10200;49.232;9.222;2024-01-06T13:30:39;8.40;;;5.33;;
20080;SDS011;10200;49.232;9.222;2024-01-06T13:33:06;7.27;;;5.30;;
20080;SDS011;10200;49.232;9.222;2024-01-06T13:35:35;6.80;;;4.77;;
20080;SDS011;10200;49.232;9.222;2024-01-06T13:38:03;8.87;;;5.60;;
20080;SDS011;10200;49.232;9.222;2024-01-06T13:40:31;8.77;;;6.10;;
20080;SDS011;10200;49.232;9.222;2024-01-06T13:42:57;8.57;;;5.20;;
20080;SDS011;10200;49.232;9.222;2024-01-06T13:45:23;8.27;;;5.17;;
20080;SDS011;10200;49.232;9.222;2024-01-06T13:47:49;9.27;;;6.07;;
20080;SDS011;10200;49.232;9.222;2024-01-06T13:50:18;9.27;;;5.37;;
20080;SDS011;10200;49.232;9.222;2024-01-06T13:52:44;7.20;;;5.10;;
20080;SDS011;10200;49.232;9.222;2024-01-06T13:55:11;8.87;;;6.17;;
20080;SDS011;10200;49.232;9.222;2024-01-06T13:57:37;8.27;;;5.77;;
20080;SDS011;10200;49.232;9.222;2024-01-06T14:00:09;8.20;;;5.60;;
20080;SDS011;10200;49.232;9.222;2024-01-06T14:02:36;8.50;;;5.23;;
20080;SDS011;10200;49.232;9.222;2024-01-06T14:05:03;6.87;;;5.47;;
20080;SDS011;10200;49.232;9.222;2024-01-06T14:07:30;8.23;;;6.30;;
20080;SDS011;10200;49.232;9.222;2024-01-06T14:09:55;8.13;;;5.83;;
20080;SDS011;10200;49.232;9.222;2024-01-06T14:12:21;8.03;;;5.63;;
20080;SDS011;10200;49.232;9.222;2024-01-06T14:14:47;10.17;;;5.73;;
20080;SDS011;10200;49.232;9.222;2024-01-06T14:17:12;8.70;;;5.57;;
20080;SDS011;10200;49.232;9.222;2024-01-06T14:19:38;8.13;;;5.90;;
20080;SDS011;10200;49.232;9.222;2024-01-06T14:22:04;7.03;;;5.53;;
20080;SDS011;10200;49.232;9.222;2024-01-06T14:24:30;7.27;;;5.70;;
20080;SDS011;10200;49.232;9.222;2024-01-06T14:26:56;8.73;;;7.07;;
20080;SDS011;10200;49.232;9.222;2024-01-06T14:29:22;16.23;;;8.37;;
20080;SDS011;10200;49.232;9.222;2024-01-06T14:31:48;12.97;;;6.40;;
20080;SDS011;10200;49.232;9.222;2024-01-06T14:34:13;7.87;;;6.10;;
20080;SDS011;10200;49.232;9.222;2024-01-06T14:36:39;7.07;;;5.40;;
20080;SDS011;10200;49.232;9.222;2024-01-06T14:39:12;8.37;;;5.73;;
20080;SDS011;10200;49.232;9.222;2024-01-06T14:41:39;11.40;;;6.70;;
20080;SDS011;10200;49.232;9.222;2024-01-06T14:44:05;8.00;;;5.97;;
20080;SDS011;10200;49.232;9.222;2024-01-06T14:46:32;8.97;;;6.33;;
20080;SDS011;10200;49.232;9.222;2024-01-06T14:49:00;9.47;;;6.07;;
20080;SDS011;10200;49.232;9.222;2024-01-06T14:51:28;9.23;;;6.70;;
20080;SDS011;10200;49.232;9.222;2024-01-06T14:53:53;9.53;;;6.87;;